Route Details

Aircraft Information
Group: North America Fleet
Types: B738, B752, B762, B763
Route Data
Distance: 582nm
Duration: 2h 14m
Origin METAR: KELP 171051Z 04011KT 7SM -RA BKN036 OVC047 20/17 A3006 RMK AO2 SLP112 MTNS OBSCD SW-NW P0004 T02000172 $
Dest. METAR: KONT 171053Z 17004KT 10SM SCT180 23/14 A2988 RMK AO2 SLP097 T02280144
Freight Data
(for Aug 18, 2022)
Load Factor:
41%
Manifested Cargo: 24,680lbs
Financial History
Total Freight: 49,925lbs
Average Load: 0lbs/flt
Fuel Used: 9,962lbs
Avg. Fuel Used: 0lbs/flt
Fuel Expense: $6,874
Avg. Fuel Expense: $0
Avg. Fuel Cost: $0/lbs
Total Gross Income: $127,309
Pilot Pay: $169
Total Expenses: $25,940
Total Revenue: $94,072
Average Revenue: $0

Capitol Logistics 427




KELP
El Paso International Airport
El Paso, Texas
KONT
Ontario International Airport
Ontario, California

Activity Log

Date Flight Route Aircraft Duration
07/17/2022 CPX427 ATKNN5 FLOGS TFD J169 KOFFA PHRED SCBBY2 B763 1h 25m